Time;durP1;ratioP1;P1;durP2;ratioP2;P2;SDS_P1;SDS_P2;PMS_P1;PMS_P2;Temp;Humidity;BMP_temperature;BMP_pressure;BME280_temperature;BME280_humidity;BME280_pressure;Samples;Min_cycle;Max_cycle;Signal;HPM_P1;HPM_P2
2023/03/29 00:00:25;;;;;;;10.02;3.40;;;7.80;94.60;;;;;;4989170;28;20041;-77
2023/03/29 00:02:51;;;;;;;7.53;3.90;;;7.90;94.60;;;;;;4986850;28;20041;-77
2023/03/29 00:05:21;;;;;;;7.38;3.42;;;7.90;94.60;;;;;;4987937;28;20042;-77
2023/03/29 00:07:52;;;;;;;8.85;4.03;;;7.90;94.40;;;;;;4989219;28;20061;-76
2023/03/29 00:10:21;;;;;;;6.35;3.60;;;8.00;94.30;;;;;;4990274;28;20525;-76
2023/03/29 00:12:47;;;;;;;9.45;3.35;;;8.00;94.30;;;;;;4989301;28;20022;-78
2023/03/29 00:15:13;;;;;;;7.13;3.47;;;7.90;94.20;;;;;;4989160;28;20026;-76
2023/03/29 00:17:39;;;;;;;8.82;3.30;;;7.90;94.20;;;;;;4988620;28;20069;-74
2023/03/29 00:20:09;;;;;;;6.88;3.55;;;8.00;94.20;;;;;;4999879;28;20053;-76
2023/03/29 00:22:36;;;;;;;7.38;4.03;;;7.90;94.20;;;;;;5001828;28;20026;-76
2023/03/29 00:25:03;;;;;;;6.72;3.88;;;8.00;94.20;;;;;;4990327;28;20026;-77
2023/03/29 00:27:29;;;;;;;6.10;2.80;;;8.00;94.10;;;;;;4987948;28;20539;-76
2023/03/29 00:29:55;;;;;;;7.68;4.22;;;8.00;94.10;;;;;;4988360;28;20037;-77
2023/03/29 00:32:21;;;;;;;9.00;3.75;;;8.00;94.20;;;;;;4989970;28;20026;-77
2023/03/29 00:34:49;;;;;;;9.75;4.28;;;8.00;94.10;;;;;;4991864;28;20029;-77
2023/03/29 00:37:15;;;;;;;7.88;3.45;;;8.00;94.00;;;;;;4991503;28;20038;-76
2023/03/29 00:39:41;;;;;;;7.18;3.28;;;8.00;94.00;;;;;;4992229;28;20030;-77
2023/03/29 00:42:15;;;;;;;7.63;3.17;;;8.00;93.90;;;;;;4994722;28;20141;-77
2023/03/29 00:45:17;;;;;;;10.15;3.63;;;8.00;93.90;;;;;;4993582;28;20038;-77
2023/03/29 00:47:48;;;;;;;8.00;3.42;;;8.00;94.00;;;;;;4995142;28;20034;-77
2023/03/29 00:50:21;;;;;;;13.95;4.60;;;8.00;93.90;;;;;;4993607;28;20041;-77
2023/03/29 00:52:58;;;;;;;9.32;4.03;;;8.00;94.00;;;;;;4994612;28;20072;-76
2023/03/29 00:55:30;;;;;;;7.95;3.50;;;8.00;93.90;;;;;;4993197;28;20093;-76
2023/03/29 00:57:57;;;;;;;7.82;3.30;;;8.00;93.80;;;;;;4992796;28;20489;-76
2023/03/29 01:00:30;;;;;;;5.32;3.00;;;8.10;93.80;;;;;;4992242;28;20101;-76
2023/03/29 01:02:58;;;;;;;7.95;2.90;;;8.00;93.80;;;;;;4993653;28;20484;-76
2023/03/29 01:05:36;;;;;;;7.15;2.85;;;8.00;93.70;;;;;;4997774;28;20029;-77
2023/03/29 01:08:19;;;;;;;6.43;3.00;;;8.10;93.70;;;;;;4992810;28;20555;-77
2023/03/29 01:11:05;;;;;;;8.00;3.70;;;8.10;93.60;;;;;;4992599;28;20105;-77
2023/03/29 01:13:39;;;;;;;9.55;3.85;;;8.10;93.60;;;;;;4992833;28;20058;-77
2023/03/29 01:16:08;;;;;;;8.95;3.17;;;8.10;93.50;;;;;;4989089;28;20069;-76
2023/03/29 01:18:34;;;;;;;7.55;3.67;;;8.20;93.50;;;;;;4993640;28;20555;-77
2023/03/29 01:21:14;;;;;;;7.05;3.35;;;8.20;93.40;;;;;;4992255;28;20030;-77
2023/03/29 01:23:51;;;;;;;8.18;3.40;;;8.10;93.40;;;;;;4992799;28;20493;-76
2023/03/29 01:26:23;;;;;;;6.13;2.80;;;8.10;93.40;;;;;;4992634;28;20058;-77
2023/03/29 01:28:58;;;;;;;10.23;4.07;;;8.10;93.40;;;;;;4993115;28;20018;-77
2023/03/29 01:31:28;;;;;;;7.85;3.38;;;8.10;93.40;;;;;;4992572;28;20113;-77
2023/03/29 01:34:11;;;;;;;7.82;2.85;;;8.10;93.30;;;;;;5005614;28;20029;-78
2023/03/29 01:36:45;;;;;;;6.90;3.47;;;8.20;93.30;;;;;;4992238;28;20030;-76
2023/03/29 01:39:11;;;;;;;6.47;2.90;;;8.20;93.30;;;;;;4992524;28;20022;-77
2023/03/29 01:41:50;;;;;;;5.90;2.70;;;8.20;93.20;;;;;;4991639;28;20032;-76
2023/03/29 01:44:33;;;;;;;8.30;3.30;;;8.20;93.20;;;;;;4991836;28;20085;-76
2023/03/29 01:47:11;;;;;;;7.25;3.30;;;8.20;93.10;;;;;;4990773;28;20758;-77
2023/03/29 01:49:55;;;;;;;6.85;3.42;;;8.20;93.10;;;;;;4992233;28;20042;-78
2023/03/29 01:52:36;;;;;;;8.85;3.45;;;8.20;93.10;;;;;;4988339;28;20033;-77
2023/03/29 01:55:11;;;;;;;10.65;3.60;;;8.20;93.00;;;;;;4972416;28;20023;-77
2023/03/29 01:57:42;;;;;;;6.50;3.50;;;8.20;93.00;;;;;;4989943;28;20066;-77
2023/03/29 02:00:13;;;;;;;8.50;4.15;;;8.30;92.90;;;;;;4996772;28;20046;-77
2023/03/29 02:02:43;;;;;;;6.22;2.90;;;8.30;92.90;;;;;;5007583;28;20035;-77
2023/03/29 02:05:13;;;;;;;;;;;8.30;92.90;;;;;;4994408;28;20029;-77
2023/03/29 02:07:42;;;;;;;6.95;3.78;;;8.40;92.90;;;;;;4994165;28;19906;-76
2023/03/29 02:10:10;;;;;;;8.02;3.47;;;8.30;92.80;;;;;;5003959;28;20080;-77
2023/03/29 02:12:36;;;;;;;7.25;2.97;;;8.30;92.80;;;;;;4992747;28;20555;-79
2023/03/29 02:15:09;;;;;;;10.02;3.83;;;8.40;92.90;;;;;;4991427;28;20122;-77
2023/03/29 02:17:34;;;;;;;7.22;3.60;;;8.30;92.80;;;;;;4990273;28;20054;-77
2023/03/29 02:20:21;;;;;;;8.93;3.88;;;8.40;93.00;;;;;;4991973;28;20031;-75
2023/03/29 02:22:50;;;;;;;7.25;3.47;;;8.40;93.00;;;;;;4996414;28;20035;-78
2023/03/29 02:25:17;;;;;;;12.00;3.85;;;8.30;93.10;;;;;;4992098;28;20497;-76
2023/03/29 02:27:43;;;;;;;9.32;3.28;;;8.20;93.20;;;;;;4993097;28;20032;-76
2023/03/29 02:30:11;;;;;;;7.85;3.55;;;8.20;93.30;;;;;;4992282;28;20047;-77
2023/03/29 02:32:48;;;;;;;7.63;3.38;;;8.30;93.40;;;;;;4991973;28;20496;-77
2023/03/29 02:35:20;;;;;;;6.68;3.40;;;8.30;93.40;;;;;;4991690;28;20038;-76
2023/03/29 02:37:50;;;;;;;6.10;3.15;;;8.30;93.60;;;;;;4990328;28;20041;-77
2023/03/29 02:40:16;;;;;;;9.97;3.90;;;8.30;93.70;;;;;;4991828;28;20022;-77
2023/03/29 02:42:44;;;;;;;9.98;3.58;;;8.30;93.90;;;;;;4991203;28;20027;-78
2023/03/29 02:45:14;;;;;;;8.00;3.80;;;8.30;94.10;;;;;;4990371;28;20026;-77
2023/03/29 02:47:52;;;;;;;6.80;3.58;;;8.30;94.30;;;;;;4991038;28;20532;-77
2023/03/29 02:50:19;;;;;;;7.85;3.25;;;8.30;94.50;;;;;;4991171;28;20030;-78
2023/03/29 02:53:21;;;;;;;7.47;3.58;;;8.30;94.70;;;;;;4991240;28;20026;-76
2023/03/29 02:55:47;;;;;;;5.75;3.88;;;8.20;94.90;;;;;;4990482;28;20142;-77
2023/03/29 02:58:14;;;;;;;10.73;4.75;;;8.20;95.30;;;;;;4993792;28;20564;-76
2023/03/29 03:00:46;;;;;;;7.65;4.20;;;8.20;95.50;;;;;;4989453;28;20034;-77
2023/03/29 03:03:14;;;;;;;9.13;3.60;;;8.20;95.90;;;;;;4989016;28;20023;-76
2023/03/29 03:05:40;;;;;;;11.63;5.05;;;8.10;96.00;;;;;;4991734;28;20018;-77
2023/03/29 03:08:06;;;;;;;6.45;3.67;;;8.10;96.30;;;;;;4986026;28;20027;-78
2023/03/29 03:10:36;;;;;;;8.02;4.85;;;8.10;96.60;;;;;;4998785;28;20077;-77
2023/03/29 03:13:02;;;;;;;11.55;4.38;;;8.10;96.80;;;;;;4997462;28;20061;-76
2023/03/29 03:15:27;;;;;;;7.60;4.50;;;8.00;97.10;;;;;;4989645;28;20026;-75
2023/03/29 03:17:53;;;;;;;7.35;3.90;;;8.10;97.30;;;;;;4990624;28;20050;-77
2023/03/29 03:20:22;;;;;;;11.68;5.15;;;8.10;97.40;;;;;;4990902;28;20162;-77
2023/03/29 03:22:48;;;;;;;10.13;5.18;;;8.10;97.60;;;;;;4991588;28;20030;-76
2023/03/29 03:25:15;;;;;;;10.10;5.15;;;8.20;97.70;;;;;;4989064;28;20045;-76
2023/03/29 03:27:41;;;;;;;10.85;4.85;;;8.10;97.60;;;;;;4988571;28;20484;-75
2023/03/29 03:30:08;;;;;;;8.45;4.40;;;8.20;97.70;;;;;;4990203;28;20504;-77
2023/03/29 03:32:36;;;;;;;9.65;5.65;;;8.20;97.80;;;;;;4990623;28;20062;-77
2023/03/29 03:35:04;;;;;;;11.73;5.43;;;8.20;97.80;;;;;;4990135;28;20037;-77
2023/03/29 03:37:30;;;;;;;9.93;5.45;;;8.10;98.00;;;;;;4988546;28;20584;-77
2023/03/29 03:39:56;;;;;;;9.20;5.57;;;8.10;98.20;;;;;;4988512;28;20110;-75
2023/03/29 03:42:22;;;;;;;15.40;6.30;;;8.10;98.20;;;;;;4990521;28;20019;-77
2023/03/29 03:44:48;;;;;;;10.73;5.38;;;8.00;98.40;;;;;;4989510;28;20030;-77
2023/03/29 03:47:14;;;;;;;12.90;6.00;;;8.10;98.40;;;;;;4988040;28;20031;-76
2023/03/29 03:49:40;;;;;;;8.05;4.00;;;8.10;98.40;;;;;;4990169;28;20026;-77
2023/03/29 03:52:06;;;;;;;9.27;5.22;;;8.00;98.40;;;;;;4989852;28;20018;-77
2023/03/29 03:54:32;;;;;;;9.73;6.03;;;8.10;98.40;;;;;;4990347;28;20018;-78
2023/03/29 03:56:58;;;;;;;8.85;5.55;;;8.10;98.50;;;;;;4990278;28;20050;-78
2023/03/29 03:59:24;;;;;;;8.95;5.13;;;8.10;98.50;;;;;;4989702;28;20553;-76
2023/03/29 04:01:50;;;;;;;10.90;5.82;;;8.20;98.50;;;;;;4989057;28;20023;-77
2023/03/29 04:04:16;;;;;;;10.95;5.18;;;8.20;98.40;;;;;;4989474;28;20026;-77
2023/03/29 04:06:42;;;;;;;9.98;5.63;;;8.20;98.40;;;;;;4990747;28;20091;-76
2023/03/29 04:09:08;;;;;;;9.82;4.85;;;8.30;98.30;;;;;;4990568;28;20497;-77
2023/03/29 04:11:35;;;;;;;7.80;4.13;;;8.30;98.20;;;;;;4989606;28;20050;-77
2023/03/29 04:14:01;;;;;;;11.07;4.85;;;8.30;98.10;;;;;;4990927;28;20470;-77
2023/03/29 04:16:27;;;;;;;11.02;5.40;;;8.30;98.10;;;;;;4990477;28;20047;-78
2023/03/29 04:18:53;;;;;;;10.85;5.45;;;8.40;98.20;;;;;;4989944;28;20091;-77
2023/03/29 04:21:19;;;;;;;9.27;5.57;;;8.40;98.10;;;;;;4988839;28;20054;-76
2023/03/29 04:23:46;;;;;;;10.07;5.22;;;8.40;98.10;;;;;;4988298;28;20034;-76
2023/03/29 04:26:13;;;;;;;13.00;6.03;;;8.50;98.10;;;;;;4988416;28;20030;-77
2023/03/29 04:28:39;;;;;;;8.05;4.82;;;8.50;98.00;;;;;;4990148;28;20026;-76
2023/03/29 04:31:12;;;;;;;12.23;5.70;;;8.60;97.90;;;;;;4989303;28;20046;-76
2023/03/29 04:33:38;;;;;;;10.65;5.22;;;8.60;97.90;;;;;;4989472;28;20503;-76
2023/03/29 04:36:05;;;;;;;7.05;4.95;;;8.50;97.70;;;;;;4988816;28;20034;-77
2023/03/29 04:38:34;;;;;;;9.80;5.53;;;8.50;97.80;;;;;;4991192;28;20500;-76
2023/03/29 04:41:01;;;;;;;8.15;4.15;;;8.50;97.80;;;;;;4989988;28;20042;-76
2023/03/29 04:43:28;;;;;;;12.38;5.10;;;8.60;97.80;;;;;;4987938;28;20034;-76
2023/03/29 04:45:55;;;;;;;10.32;6.47;;;8.50;97.70;;;;;;4989894;28;20105;-76
2023/03/29 04:48:24;;;;;;;7.68;4.28;;;8.50;97.70;;;;;;4989530;28;20022;-77
2023/03/29 04:50:51;;;;;;;10.32;5.03;;;8.50;97.70;;;;;;4999895;28;20041;-78
2023/03/29 04:53:16;;;;;;;9.57;5.55;;;8.50;97.70;;;;;;4988777;28;20022;-77
2023/03/29 04:55:42;;;;;;;9.15;5.20;;;8.50;97.70;;;;;;4989694;28;20157;-77
2023/03/29 04:58:08;;;;;;;11.13;5.50;;;8.60;97.70;;;;;;4988601;28;20038;-76
2023/03/29 05:00:36;;;;;;;14.70;4.93;;;8.60;97.70;;;;;;4987650;28;20033;-77
2023/03/29 05:03:03;;;;;;;12.10;5.25;;;8.60;97.60;;;;;;4986966;28;20022;-76
2023/03/29 05:05:29;;;;;;;12.48;5.43;;;8.60;97.60;;;;;;4988512;28;20477;-76
2023/03/29 05:07:55;;;;;;;9.55;4.93;;;8.70;97.60;;;;;;4984506;28;20030;-78
2023/03/29 05:10:22;;;;;;;11.10;5.95;;;8.70;97.50;;;;;;4989210;28;20049;-77
2023/03/29 05:12:52;;;;;;;10.63;5.60;;;8.70;97.40;;;;;;4987762;28;20038;-78
2023/03/29 05:15:19;;;;;;;9.38;5.10;;;8.70;97.40;;;;;;4987432;28;20023;-78
2023/03/29 05:17:45;;;;;;;9.18;5.03;;;8.80;97.40;;;;;;4991288;28;20050;-78
2023/03/29 05:20:12;;;;;;;9.73;4.70;;;8.80;97.30;;;;;;4989969;28;20193;-79
2023/03/29 05:22:37;;;;;;;13.90;5.82;;;8.80;97.30;;;;;;4989219;28;20018;-79
2023/03/29 05:25:04;;;;;;;13.55;5.60;;;8.80;97.20;;;;;;4988556;28;20033;-78
2023/03/29 05:27:30;;;;;;;8.50;5.07;;;8.80;97.10;;;;;;4992183;28;20041;-78
2023/03/29 05:29:55;;;;;;;9.05;4.30;;;8.80;97.00;;;;;;4993134;28;20026;-78
2023/03/29 05:32:21;;;;;;;9.35;4.53;;;8.90;96.90;;;;;;4991376;28;20489;-80
2023/03/29 05:34:47;;;;;;;12.23;4.60;;;8.90;96.80;;;;;;4990578;28;20062;-78
2023/03/29 05:37:12;;;;;;;9.35;5.72;;;8.90;96.70;;;;;;4988980;28;20088;-79
2023/03/29 05:39:38;;;;;;;9.15;4.53;;;8.90;96.50;;;;;;4991358;28;20073;-79
2023/03/29 05:42:04;;;;;;;12.52;5.22;;;8.90;96.30;;;;;;4992133;28;20026;-78
2023/03/29 05:44:30;;;;;;;8.70;3.97;;;8.90;96.30;;;;;;4991794;28;20089;-78
2023/03/29 05:46:56;;;;;;;10.88;4.47;;;9.00;96.20;;;;;;4991772;28;20060;-80
2023/03/29 05:49:22;;;;;;;8.13;4.18;;;9.00;96.10;;;;;;4998567;28;20036;-78
2023/03/29 05:51:48;;;;;;;9.57;4.38;;;9.00;96.10;;;;;;4992315;28;20034;-79
2023/03/29 05:54:14;;;;;;;9.38;4.38;;;9.00;96.00;;;;;;4991126;28;20039;-78
2023/03/29 05:56:40;;;;;;;10.60;4.72;;;9.10;95.90;;;;;;4992920;28;20037;-78
2023/03/29 05:59:07;;;;;;;8.27;5.10;;;9.10;95.80;;;;;;4991465;28;20031;-74
2023/03/29 06:01:33;;;;;;;8.45;4.22;;;9.10;95.70;;;;;;4991479;28;20477;-75
2023/03/29 06:03:59;;;;;;;8.75;4.22;;;9.20;95.50;;;;;;4992289;28;20480;-74
2023/03/29 06:06:25;;;;;;;11.88;5.45;;;9.20;95.50;;;;;;4992586;28;20030;-74
2023/03/29 06:08:51;;;;;;;8.55;4.13;;;9.20;95.40;;;;;;4992054;28;20440;-75
2023/03/29 06:11:16;;;;;;;11.13;4.25;;;9.20;95.20;;;;;;4992447;28;20023;-75
2023/03/29 06:13:42;;;;;;;10.70;3.83;;;9.20;95.20;;;;;;4992555;28;20105;-74
2023/03/29 06:16:09;;;;;;;7.85;4.22;;;9.20;95.20;;;;;;4991779;28;20089;-75
2023/03/29 06:18:49;;;;;;;15.98;4.07;;;9.30;95.20;;;;;;5066970;28;20398;-74
2023/03/29 06:21:15;;;;;;;9.73;4.55;;;9.40;95.00;;;;;;5065767;28;20532;-74
2023/03/29 06:23:41;;;;;;;8.25;3.85;;;9.40;94.80;;;;;;5060345;28;20025;-74
2023/03/29 06:26:07;;;;;;;10.82;4.28;;;9.40;94.80;;;;;;5064414;28;20395;-74
2023/03/29 06:28:33;;;;;;;9.43;3.83;;;9.40;94.70;;;;;;5065999;28;20119;-75
2023/03/29 06:31:00;;;;;;;8.32;3.88;;;9.40;94.70;;;;;;5066935;28;20024;-75
2023/03/29 06:33:28;;;;;;;10.68;4.00;;;9.50;94.60;;;;;;5048043;28;20025;-75
2023/03/29 06:35:53;;;;;;;9.55;5.38;;;9.50;94.60;;;;;;5053065;28;20044;-74
2023/03/29 06:38:19;;;;;;;8.23;4.70;;;9.50;94.50;;;;;;5061374;28;20036;-75
2023/03/29 06:40:46;;;;;;;7.63;3.92;;;9.50;94.40;;;;;;5066459;28;20456;-74
2023/03/29 06:43:12;;;;;;;7.70;3.65;;;9.50;94.50;;;;;;5063200;28;20029;-75
2023/03/29 06:45:39;;;;;;;12.70;4.50;;;9.50;94.30;;;;;;5055675;28;20775;-73
2023/03/29 06:48:06;;;;;;;12.40;6.05;;;9.50;94.20;;;;;;5058626;28;20083;-73
2023/03/29 06:50:33;;;;;;;7.22;4.25;;;9.60;94.30;;;;;;5056725;28;20416;-75
2023/03/29 06:52:59;;;;;;;14.48;4.57;;;9.60;94.30;;;;;;5058719;28;20506;-75
2023/03/29 06:55:25;;;;;;;8.60;4.82;;;9.60;94.50;;;;;;5054562;28;20079;-74
2023/03/29 06:57:53;;;;;;;9.13;4.95;;;9.60;94.80;;;;;;5058237;28;20045;-74
2023/03/29 07:00:22;;;;;;;10.43;5.25;;;9.60;95.00;;;;;;5055220;28;20017;-74
2023/03/29 07:02:48;;;;;;;8.57;4.95;;;9.60;95.40;;;;;;5059311;28;20605;-74
2023/03/29 07:05:14;;;;;;;7.28;3.30;;;9.50;95.60;;;;;;5052239;28;20016;-75
2023/03/29 07:07:55;;;;;;;10.13;4.18;;;9.50;95.80;;;;;;5058557;28;20370;-74
2023/03/29 07:10:32;;;;;;;11.85;5.60;;;9.50;96.10;;;;;;5061868;28;20035;-75
2023/03/29 07:12:59;;;;;;;10.20;4.15;;;9.60;96.30;;;;;;5069258;28;20104;-73
2023/03/29 07:15:26;;;;;;;11.27;5.63;;;9.60;96.40;;;;;;5052076;28;20104;-73
2023/03/29 07:17:52;;;;;;;11.15;4.03;;;9.60;96.40;;;;;;5045232;28;20499;-73
2023/03/29 07:20:20;;;;;;;10.15;5.10;;;9.70;96.40;;;;;;5046111;28;20029;-73
2023/03/29 07:22:49;;;;;;;14.20;6.07;;;9.70;96.30;;;;;;5044550;28;20074;-72
2023/03/29 07:25:17;;;;;;;9.90;5.43;;;9.70;96.20;;;;;;5065971;28;20486;-71
2023/03/29 07:27:43;;;;;;;11.38;5.53;;;9.70;96.20;;;;;;5045437;28;20847;-71
2023/03/29 07:30:12;;;;;;;13.13;4.97;;;9.70;96.20;;;;;;5036984;28;20059;-72
2023/03/29 07:32:39;;;;;;;9.95;5.40;;;9.70;96.00;;;;;;5034066;28;20519;-72
2023/03/29 07:35:06;;;;;;;10.27;5.75;;;9.80;95.90;;;;;;5030844;28;20026;-72
2023/03/29 07:37:34;;;;;;;12.52;5.20;;;9.80;95.80;;;;;;5035663;28;20043;-73
2023/03/29 07:40:02;;;;;;;9.98;4.55;;;9.90;95.60;;;;;;5034333;28;20072;-73
2023/03/29 07:42:27;;;;;;;16.92;5.28;;;9.90;95.40;;;;;;5030578;28;20068;-72
2023/03/29 07:44:54;;;;;;;11.57;5.35;;;9.90;95.30;;;;;;5031794;28;20021;-73
2023/03/29 07:47:22;;;;;;;11.27;5.20;;;10.00;95.40;;;;;;5030558;28;20024;-72
2023/03/29 07:49:47;;;;;;;12.50;5.07;;;10.00;95.20;;;;;;5032196;28;20075;-73
2023/03/29 07:52:13;;;;;;;12.02;5.57;;;10.10;95.00;;;;;;5034174;28;20032;-73
2023/03/29 07:54:38;;;;;;;11.60;5.43;;;10.10;94.90;;;;;;5032755;28;20481;-72
2023/03/29 07:57:04;;;;;;;8.65;4.53;;;10.10;94.80;;;;;;5032219;28;20389;-72
2023/03/29 07:59:29;;;;;;;10.68;5.32;;;10.20;94.60;;;;;;5030031;28;20029;-73
2023/03/29 08:01:55;;;;;;;7.30;4.57;;;10.20;94.60;;;;;;5027877;28;20017;-71
2023/03/29 08:04:21;;;;;;;9.13;4.55;;;10.30;94.50;;;;;;5026447;28;20020;-71
2023/03/29 08:06:47;;;;;;;10.00;4.55;;;10.30;94.50;;;;;;5030919;28;20025;-72
2023/03/29 08:09:13;;;;;;;7.93;4.47;;;10.40;94.40;;;;;;5030080;28;20033;-73
2023/03/29 08:11:39;;;;;;;11.60;5.80;;;10.40;94.10;;;;;;5030747;28;20037;-74
2023/03/29 08:14:05;;;;;;;11.10;5.22;;;10.40;94.00;;;;;;5033563;28;20017;-72
2023/03/29 08:16:32;;;;;;;10.10;5.15;;;10.50;94.00;;;;;;5035603;28;20040;-72
2023/03/29 08:18:58;;;;;;;11.00;5.63;;;10.50;94.10;;;;;;5029545;28;20029;-72
2023/03/29 08:21:24;;;;;;;8.15;4.63;;;10.50;94.20;;;;;;5042482;28;20094;-72
2023/03/29 08:23:50;;;;;;;14.20;6.30;;;10.70;94.20;;;;;;5039784;28;20049;-72
2023/03/29 08:26:15;;;;;;;11.80;5.93;;;10.70;94.00;;;;;;5041242;28;20036;-72
2023/03/29 08:28:42;;;;;;;10.90;4.75;;;10.80;94.00;;;;;;5038077;28;20037;-73
2023/03/29 08:31:09;;;;;;;10.60;5.65;;;10.80;94.10;;;;;;5048241;28;20025;-72
2023/03/29 08:33:35;;;;;;;10.18;6.22;;;10.90;93.90;;;;;;5045493;28;20051;-72
2023/03/29 08:36:01;;;;;;;11.18;5.88;;;10.90;93.70;;;;;;5050585;28;20411;-74
2023/03/29 08:38:28;;;;;;;11.45;5.97;;;10.90;93.80;;;;;;5034961;28;20124;-74
2023/03/29 08:40:54;;;;;;;11.60;5.32;;;11.00;93.80;;;;;;5048533;28;20025;-74
2023/03/29 08:44:05;;;;;;;10.25;5.93;;;11.00;93.90;;;;;;5040619;28;20394;-74
2023/03/29 08:46:58;;;;;;;8.50;5.13;;;11.10;93.90;;;;;;5035917;28;20037;-75
2023/03/29 08:49:25;;;;;;;10.85;5.90;;;11.30;93.90;;;;;;5034274;28;20119;-74
2023/03/29 08:51:59;;;;;;;10.95;6.03;;;11.50;93.80;;;;;;5040490;28;20499;-75
2023/03/29 08:54:32;;;;;;;15.38;6.55;;;11.60;93.40;;;;;;5033835;28;20033;-74
2023/03/29 08:57:09;;;;;;;11.23;5.65;;;11.70;93.30;;;;;;5039819;28;20387;-74
2023/03/29 08:59:39;;;;;;;14.52;7.20;;;11.70;93.30;;;;;;5047060;28;20103;-74
2023/03/29 09:02:16;;;;;;;12.10;6.05;;;11.70;93.40;;;;;;5050269;28;20029;-75
2023/03/29 09:04:42;;;;;;;15.63;7.75;;;11.80;93.40;;;;;;5038731;28;20536;-74
2023/03/29 09:07:09;;;;;;;8.88;5.20;;;11.90;93.40;;;;;;5044804;28;20025;-74
2023/03/29 09:09:36;;;;;;;17.42;8.77;;;12.00;93.30;;;;;;5047726;28;20111;-75
2023/03/29 09:12:34;;;;;;;11.30;7.03;;;12.00;93.20;;;;;;5035800;28;20017;-74
2023/03/29 09:15:13;;;;;;;12.98;6.82;;;11.90;93.40;;;;;;5044203;28;20475;-74
2023/03/29 09:17:59;;;;;;;12.20;7.55;;;11.80;93.70;;;;;;5049625;28;20099;-74
2023/03/29 09:20:34;;;;;;;16.60;7.97;;;11.80;94.10;;;;;;5048452;28;20025;-74
2023/03/29 09:23:12;;;;;;;15.10;9.18;;;11.80;94.30;;;;;;5045527;28;20053;-74
2023/03/29 09:25:58;;;;;;;15.77;8.15;;;11.80;94.60;;;;;;5041393;28;20025;-75
2023/03/29 09:28:36;;;;;;;15.00;7.57;;;11.90;95.20;;;;;;5041849;28;20391;-75
2023/03/29 09:31:02;;;;;;;19.70;8.90;;;11.90;95.40;;;;;;5041375;28;20025;-74
2023/03/29 09:33:41;;;;;;;10.38;5.78;;;12.00;95.20;;;;;;5034087;28;20507;-75
2023/03/29 09:36:24;;;;;;;12.25;8.10;;;12.00;94.80;;;;;;5046957;28;20028;-75
2023/03/29 09:38:53;;;;;;;13.52;8.48;;;12.00;95.50;;;;;;5036391;28;20438;-74
2023/03/29 09:41:34;;;;;;;14.95;8.75;;;12.00;95.40;;;;;;5034017;28;20053;-74
2023/03/29 09:44:05;;;;;;;15.65;7.97;;;12.00;95.40;;;;;;5033038;28;20034;-73
2023/03/29 09:46:42;;;;;;;18.70;9.50;;;12.10;95.10;;;;;;5036999;28;20029;-75
2023/03/29 09:49:20;;;;;;;21.35;10.00;;;12.20;95.40;;;;;;5033342;28;20025;-74
2023/03/29 09:51:48;;;;;;;15.35;8.98;;;12.30;95.30;;;;;;5034942;28;20020;-72
2023/03/29 09:54:14;;;;;;;14.32;10.63;;;12.40;95.30;;;;;;5045129;28;20025;-72
2023/03/29 09:56:40;;;;;;;19.83;10.27;;;12.40;95.20;;;;;;5035146;28;20043;-73
2023/03/29 09:59:06;;;;;;;13.50;9.52;;;12.50;95.10;;;;;;5042628;28;20021;-73
2023/03/29 10:01:40;;;;;;;18.08;7.68;;;12.50;94.90;;;;;;5040258;28;20031;-72
2023/03/29 10:04:08;;;;;;;22.85;12.02;;;12.50;94.70;;;;;;5048185;28;20574;-73
2023/03/29 10:06:35;;;;;;;18.58;10.00;;;12.40;95.50;;;;;;5048422;28;20009;-72
2023/03/29 10:09:03;;;;;;;18.48;10.85;;;12.40;95.60;;;;;;5036536;28;20021;-74
2023/03/29 10:11:30;;;;;;;16.08;8.88;;;12.50;95.30;;;;;;5038047;28;20025;-73
2023/03/29 10:14:02;;;;;;;15.40;8.88;;;12.50;95.10;;;;;;5043551;28;20026;-72
2023/03/29 10:16:32;;;;;;;18.30;11.00;;;12.50;95.10;;;;;;5028973;28;20431;-72
2023/03/29 10:19:05;;;;;;;15.60;10.60;;;12.60;95.40;;;;;;5046469;28;20499;-73
2023/03/29 10:21:31;;;;;;;14.85;9.00;;;12.50;95.30;;;;;;5035650;28;20029;-73
2023/03/29 10:24:00;;;;;;;18.08;10.18;;;12.60;95.40;;;;;;5046702;28;20082;-72
2023/03/29 10:26:35;;;;;;;14.67;10.20;;;12.50;95.60;;;;;;5046726;28;20087;-72
2023/03/29 10:29:03;;;;;;;13.80;8.23;;;12.70;95.60;;;;;;5040294;28;20268;-73
2023/03/29 10:31:31;;;;;;;15.70;9.68;;;12.80;95.50;;;;;;5047313;28;20021;-73
2023/03/29 10:34:02;;;;;;;16.85;9.95;;;12.90;95.30;;;;;;5037539;28;20021;-73
2023/03/29 10:36:28;;;;;;;12.73;7.57;;;13.00;95.20;;;;;;5042785;28;20032;-72
2023/03/29 10:38:58;;;;;;;17.33;9.68;;;13.10;94.80;;;;;;5041087;28;20025;-72
2023/03/29 10:41:29;;;;;;;14.55;9.45;;;13.20;94.70;;;;;;5034185;28;20018;-72
2023/03/29 10:43:55;;;;;;;15.10;7.53;;;13.20;94.70;;;;;;5045285;28;20055;-73
2023/03/29 10:46:42;;;;;;;16.27;10.18;;;13.20;94.20;;;;;;5044522;28;20502;-73
2023/03/29 10:49:18;;;;;;;20.63;11.32;;;13.20;93.90;;;;;;5039587;28;20017;-72
2023/03/29 10:51:48;;;;;;;15.00;9.10;;;13.20;94.50;;;;;;5038648;28;20025;-73
2023/03/29 10:54:16;;;;;;;;;;;13.20;94.40;;;;;;5041354;28;20021;-73
2023/03/29 10:56:52;;;;;;;14.82;10.55;;;13.20;94.60;;;;;;5033499;28;19908;-72
2023/03/29 10:59:21;;;;;;;16.10;11.10;;;13.10;94.80;;;;;;5041367;28;20033;-73
2023/03/29 11:02:08;;;;;;;15.50;10.02;;;13.10;95.50;;;;;;5044741;28;20017;-72
2023/03/29 11:04:37;;;;;;;14.65;9.18;;;13.10;95.70;;;;;;5043000;28;20052;-73
2023/03/29 11:07:33;;;;;;;17.77;11.85;;;13.10;95.40;;;;;;5038905;28;20026;-73
2023/03/29 11:10:24;;;;;;;14.18;9.82;;;13.00;96.00;;;;;;5044718;28;20025;-72
2023/03/29 11:13:01;;;;;;;14.43;7.68;;;13.00;96.00;;;;;;5042578;28;20021;-72
2023/03/29 11:15:42;;;;;;;16.55;10.45;;;13.00;96.40;;;;;;5046086;28;20024;-73
2023/03/29 11:18:41;;;;;;;14.73;9.52;;;13.20;96.60;;;;;;5043843;28;20049;-72
2023/03/29 11:21:28;;;;;;;14.00;8.15;;;13.30;95.90;;;;;;5046721;28;20017;-73
2023/03/29 11:24:00;;;;;;;15.32;10.77;;;13.30;95.50;;;;;;5042264;28;20028;-72
2023/03/29 11:26:36;;;;;;;14.93;8.95;;;13.30;95.80;;;;;;5040701;28;20021;-73
2023/03/29 11:29:11;;;;;;;13.27;7.80;;;13.30;95.60;;;;;;5037613;28;20438;-73
2023/03/29 11:32:01;;;;;;;13.73;7.30;;;13.30;95.20;;;;;;5047759;28;20467;-72
2023/03/29 11:34:53;;;;;;;12.20;7.22;;;13.40;94.80;;;;;;5033463;28;20022;-72
2023/03/29 11:37:29;;;;;;;15.30;7.13;;;13.40;95.20;;;;;;5039193;28;20037;-72
2023/03/29 11:40:14;;;;;;;14.13;8.70;;;13.50;95.40;;;;;;5036413;28;20017;-72
2023/03/29 11:42:44;;;;;;;9.57;5.90;;;13.50;95.00;;;;;;5042727;28;20039;-72
2023/03/29 11:45:27;;;;;;;13.85;8.45;;;13.50;94.70;;;;;;5035886;28;20029;-74
2023/03/29 11:47:55;;;;;;;11.02;7.07;;;13.50;95.00;;;;;;5041488;28;20033;-73
2023/03/29 11:50:49;;;;;;;11.57;8.07;;;13.50;95.30;;;;;;5041776;28;20466;-72
2023/03/29 11:53:36;;;;;;;13.57;9.57;;;13.50;95.50;;;;;;5042884;28;20033;-73
2023/03/29 11:56:29;;;;;;;13.02;7.72;;;13.40;95.30;;;;;;5040776;28;20029;-72
2023/03/29 11:59:03;;;;;;;14.07;8.57;;;13.50;95.50;;;;;;5042276;28;20033;-71
2023/03/29 12:01:32;;;;;;;12.40;6.80;;;13.50;95.30;;;;;;5043065;28;20167;-72
2023/03/29 12:04:28;;;;;;;11.02;5.78;;;13.50;95.10;;;;;;5034926;28;20583;-73
2023/03/29 12:06:54;;;;;;;14.30;8.27;;;13.50;94.90;;;;;;5039785;28;20025;-73
2023/03/29 12:09:35;;;;;;;20.10;9.70;;;13.40;95.40;;;;;;5047218;28;20036;-74
2023/03/29 12:12:04;;;;;;;15.25;9.88;;;13.50;95.50;;;;;;5041670;28;20032;-73
2023/03/29 12:14:43;;;;;;;14.88;9.40;;;13.50;95.60;;;;;;5046097;28;20025;-73
2023/03/29 12:17:14;;;;;;;11.73;7.20;;;13.50;95.60;;;;;;5038026;28;20511;-73
2023/03/29 12:19:47;;;;;;;14.80;8.65;;;13.50;95.20;;;;;;5046073;28;20033;-74
2023/03/29 12:22:13;;;;;;;12.32;9.23;;;13.50;95.50;;;;;;5043905;28;20071;-73
2023/03/29 12:24:41;;;;;;;15.00;9.23;;;13.40;95.70;;;;;;5032743;28;20029;-74
2023/03/29 12:27:19;;;;;;;13.77;9.60;;;13.30;96.00;;;;;;5035784;28;20191;-72
2023/03/29 12:30:17;;;;;;;14.63;9.13;;;13.30;96.30;;;;;;5041080;28;20029;-74
2023/03/29 12:32:49;;;;;;;12.23;8.63;;;13.40;96.20;;;;;;5041633;28;20116;-73
2023/03/29 12:35:21;;;;;;;12.18;7.82;;;13.30;96.40;;;;;;5036635;28;20071;-73
2023/03/29 12:38:02;;;;;;;10.50;6.20;;;13.40;96.10;;;;;;5040754;28;20029;-73
2023/03/29 12:40:38;;;;;;;11.70;7.65;;;13.50;96.00;;;;;;5034343;28;20029;-73
2023/03/29 12:43:07;;;;;;;13.77;8.52;;;13.50;96.10;;;;;;5040840;28;20033;-75
2023/03/29 12:45:47;;;;;;;11.68;8.40;;;13.60;96.30;;;;;;5041893;28;20382;-73
2023/03/29 12:48:22;;;;;;;10.55;7.03;;;13.60;96.30;;;;;;5041546;28;20360;-73
2023/03/29 12:50:50;;;;;;;11.73;7.32;;;13.60;96.10;;;;;;5040904;28;20017;-73
2023/03/29 12:53:23;;;;;;;12.13;8.02;;;13.60;96.10;;;;;;5045211;28;20020;-73
2023/03/29 12:55:55;;;;;;;10.45;6.68;;;13.60;96.00;;;;;;5036202;28;20099;-72
2023/03/29 12:58:25;;;;;;;12.68;8.48;;;13.60;96.10;;;;;;5042319;28;20059;-73
2023/03/29 13:01:04;;;;;;;;;;;13.60;96.20;;;;;;5040882;28;20086;-72
2023/03/29 13:03:46;;;;;;;10.73;7.82;;;13.50;96.30;;;;;;5040041;28;19909;-73
2023/03/29 13:06:12;;;;;;;13.38;8.27;;;13.40;96.20;;;;;;5041330;28;20025;-73